Terminal Aerodrome Forecast
Issued by NWS Green Bay, WI

Home | Current Version | Previous Version | Text Only | Print | Product List | Glossary Off
Versions: 1 2 3 4 5 6 7 8 9 10 11 12 13 14 15 16 17 18 19 20 21 22 23 24 25 26 27 28 29 30 31 32 33 34 35 36

000
FTUS43 KGRB 211121
TAFGRB
TAF
KGRB 211121Z 2112/2212 VRB03KT P6SM BKN250
     FM211500 18005KT P6SM BKN150
     FM212100 15009KT P6SM SCT050 OVC120
      TEMPO 2122/2202 3SM TSRA BKN040CB
     FM220200 14007KT 5SM -SHRA VCTS SCT035CB OVC060
     FM220500 13009KT 3SM +SHRA VCTS OVC015CB
     FM221000 12008KT 4SM -SHRA BR OVC005=

USA.gov is the U.S. government's official web portal to all federal, state and local government web resources and services.